Charlotte (CLT/KCLT)

Map

Destinations

Information

Location
Charlotte, NC
Local Time
01:11 / 1:11 am
GMT Time
06:11 / 6:11 am
Gates
A7
No FAA reported delays
METAR KCLT 140552Z 24009G16KT 10SM FEW250 04/M09 A2972 RMK AO2 SLP065 T00441089 10056 20044 56011
TAF KCLT 140531Z 1406/1512 23010KT P6SM SKC FM141300 23005KT P6SM SKC FM141700 28005KT P6SM FEW200 FM150300 05004KT P6SM FEW050